createdAt,value
2022-08-26T00:01:13.574Z,22.32
2022-08-26T00:04:16.489Z,22.29
2022-08-26T00:07:18.980Z,22.27
2022-08-26T00:10:21.655Z,22.23
2022-08-26T00:13:28.260Z,22.10
2022-08-26T00:16:31.639Z,22.07
2022-08-26T00:19:34.017Z,22.07
2022-08-26T00:22:37.142Z,22.17
2022-08-26T00:25:42.532Z,22.09
2022-08-26T00:28:45.032Z,22.00
2022-08-26T00:31:47.691Z,21.93
2022-08-26T00:34:50.630Z,21.96
2022-08-26T00:37:53.368Z,21.93
2022-08-26T00:40:57.385Z,21.88
2022-08-26T00:44:00.076Z,21.79
2022-08-26T00:47:07.977Z,21.82
2022-08-26T00:50:13.732Z,21.82
2022-08-26T00:53:24.162Z,21.89
2022-08-26T00:56:47.048Z,21.88
2022-08-26T00:59:55.182Z,21.88
2022-08-26T01:03:00.374Z,21.86
2022-08-26T01:06:03.796Z,21.92
2022-08-26T01:09:06.844Z,21.81
2022-08-26T01:12:09.870Z,21.85
2022-08-26T01:15:19.222Z,21.82
2022-08-26T01:18:22.844Z,21.52
2022-08-26T01:21:45.508Z,21.54
2022-08-26T01:24:49.372Z,21.51
2022-08-26T01:28:00.054Z,21.42
2022-08-26T01:31:05.218Z,21.46
2022-08-26T01:34:37.850Z,21.41
2022-08-26T01:37:41.372Z,21.37
2022-08-26T01:40:44.164Z,21.23
2022-08-26T01:43:50.680Z,21.34
2022-08-26T01:46:54.647Z,21.42
2022-08-26T01:50:01.231Z,21.46
2022-08-26T01:53:09.662Z,21.41
2022-08-26T01:56:15.471Z,21.49
2022-08-26T01:59:20.357Z,21.41
2022-08-26T02:02:23.364Z,21.15
2022-08-26T02:05:26.924Z,21.15
2022-08-26T02:08:44.495Z,21.10
2022-08-26T02:11:47.460Z,21.01
2022-08-26T02:14:53.798Z,20.94
2022-08-26T02:17:56.190Z,20.97
2022-08-26T02:21:00.367Z,21.03
2022-08-26T02:24:15.294Z,21.01
2022-08-26T02:27:21.200Z,20.81
2022-08-26T02:30:32.083Z,20.56
2022-08-26T02:33:34.538Z,20.42
2022-08-26T02:36:38.791Z,20.23
2022-08-26T02:39:42.988Z,20.32
2022-08-26T02:42:45.290Z,20.23
2022-08-26T02:45:47.612Z,20.19
2022-08-26T02:48:50.372Z,20.13
2022-08-26T02:51:52.975Z,20.13
2022-08-26T02:54:55.313Z,20.23
2022-08-26T02:57:58.149Z,20.06
2022-08-26T03:01:01.714Z,20.09
2022-08-26T03:04:11.655Z,19.99
2022-08-26T03:07:14.897Z,19.89
2022-08-26T03:10:18.321Z,19.85
2022-08-26T03:13:20.763Z,19.95
2022-08-26T03:16:23.240Z,20.05
2022-08-26T03:19:26.351Z,19.99
2022-08-26T03:22:28.631Z,19.91
2022-08-26T03:25:30.932Z,19.89
2022-08-26T03:28:33.371Z,19.70
2022-08-26T03:31:37.908Z,19.47
2022-08-26T03:34:40.576Z,19.68
2022-08-26T03:37:43.337Z,19.79
2022-08-26T03:40:46.888Z,19.81
2022-08-26T03:43:51.001Z,19.64
2022-08-26T03:46:54.495Z,19.60
2022-08-26T03:49:57.909Z,19.26
2022-08-26T03:53:00.215Z,19.14
2022-08-26T03:56:03.883Z,19.22
2022-08-26T03:59:07.675Z,19.14
2022-08-26T04:02:11.627Z,19.04
2022-08-26T04:05:16.592Z,19.10
2022-08-26T04:08:20.063Z,19.35
2022-08-26T04:11:34.243Z,19.38
2022-08-26T04:14:40.197Z,19.53
2022-08-26T04:17:42.970Z,19.34
2022-08-26T04:20:47.407Z,19.37
2022-08-26T04:23:50.214Z,19.24
2022-08-26T04:26:53.284Z,19.19
2022-08-26T04:29:55.559Z,19.38
2022-08-26T04:32:58.473Z,19.50
2022-08-26T04:36:02.610Z,19.34
2022-08-26T04:39:06.985Z,19.49
2022-08-26T04:42:09.259Z,19.71
2022-08-26T04:45:11.836Z,19.85
2022-08-26T04:48:16.765Z,20.02
2022-08-26T04:51:21.398Z,20.09
2022-08-26T04:54:25.195Z,20.23
2022-08-26T04:57:27.758Z,20.30
2022-08-26T05:00:30.099Z,20.49
2022-08-26T05:03:32.469Z,20.66
2022-08-26T05:06:37.039Z,20.74
2022-08-26T05:09:40.723Z,20.84
2022-08-26T05:12:43.050Z,20.83
2022-08-26T05:15:47.763Z,21.03
2022-08-26T05:18:52.864Z,21.04
2022-08-26T05:21:55.220Z,21.17
2022-08-26T05:24:57.480Z,21.37
2022-08-26T05:27:59.866Z,21.55
2022-08-26T05:31:10.540Z,21.71
2022-08-26T05:34:13.579Z,21.88
2022-08-26T05:37:17.060Z,22.07
2022-08-26T05:40:20.164Z,22.29
2022-08-26T05:43:23.206Z,22.41
2022-08-26T05:46:27.045Z,22.68
2022-08-26T05:49:29.367Z,22.83
2022-08-26T05:52:33.624Z,22.85
2022-08-26T05:55:42.705Z,22.77
2022-08-26T05:58:45.011Z,22.85
2022-08-26T06:01:48.618Z,22.97
2022-08-26T06:04:51.528Z,23.19
2022-08-26T06:08:14.194Z,23.25
2022-08-26T06:11:19.619Z,23.62
2022-08-26T06:14:23.083Z,23.73
2022-08-26T06:17:25.477Z,23.79
2022-08-26T06:20:31.780Z,24.03
2022-08-26T06:23:52.482Z,24.24
2022-08-26T06:26:57.203Z,24.41
2022-08-26T06:29:59.499Z,24.88
2022-08-26T06:33:02.415Z,24.93
2022-08-26T06:36:07.550Z,25.16
2022-08-26T06:39:12.325Z,25.23
2022-08-26T06:42:14.672Z,25.43
2022-08-26T06:45:17.305Z,25.80
2022-08-26T06:48:21.606Z,25.99
2022-08-26T06:51:30.077Z,26.28
2022-08-26T06:54:32.544Z,26.64
2022-08-26T06:57:37.768Z,26.76
2022-08-26T07:00:47.380Z,26.94
2022-08-26T07:03:55.208Z,27.47
2022-08-26T07:06:59.616Z,27.84
2022-08-26T07:10:02.451Z,28.09
2022-08-26T07:13:07.353Z,28.39
2022-08-26T07:16:13.684Z,28.56
2022-08-26T07:19:28.525Z,28.63
2022-08-26T07:22:33.679Z,29.05
2022-08-26T07:25:43.069Z,29.21
2022-08-26T07:28:48.629Z,29.51
2022-08-26T07:31:50.877Z,29.83
2022-08-26T07:34:53.284Z,29.93
2022-08-26T07:37:57.165Z,30.24
2022-08-26T07:40:59.567Z,30.18
2022-08-26T07:44:02.539Z,30.55
2022-08-26T07:47:10.446Z,30.69
2022-08-26T07:50:49.294Z,31.18
2022-08-26T07:53:52.349Z,31.26
2022-08-26T07:56:55.917Z,31.43
2022-08-26T08:00:01.927Z,31.45
2022-08-26T08:03:15.258Z,31.66
2022-08-26T08:06:22.298Z,31.88
2022-08-26T08:09:24.745Z,31.98
2022-08-26T08:12:27.038Z,32.15
2022-08-26T08:15:33.252Z,32.31
2022-08-26T08:18:37.912Z,32.35
2022-08-26T08:21:46.959Z,32.51
2022-08-26T08:24:52.979Z,32.42
2022-08-26T08:27:55.538Z,32.51
2022-08-26T08:30:59.649Z,32.59
2022-08-26T08:34:01.967Z,32.76
2022-08-26T08:37:10.072Z,32.78
2022-08-26T08:40:18.283Z,32.87
2022-08-26T08:43:44.600Z,32.76
2022-08-26T08:46:55.848Z,32.92
2022-08-26T08:50:12.674Z,32.79
2022-08-26T08:53:37.659Z,33.02
2022-08-26T08:56:53.192Z,33.50
2022-08-26T09:00:09.141Z,33.06
2022-08-26T09:03:28.947Z,33.60
2022-08-26T09:06:31.507Z,33.43
2022-08-26T09:09:40.514Z,33.58
2022-08-26T09:12:43.799Z,34.26
2022-08-26T09:15:54.322Z,34.85
2022-08-26T09:19:03.765Z,35.33
2022-08-26T09:22:08.925Z,35.43
2022-08-26T09:25:14.654Z,35.62
2022-08-26T09:28:19.843Z,35.74
2022-08-26T09:31:34.241Z,35.65
2022-08-26T09:34:52.033Z,36.21
2022-08-26T09:37:54.447Z,36.43
2022-08-26T09:41:01.094Z,35.81
2022-08-26T09:44:18.340Z,35.75
2022-08-26T09:47:30.290Z,35.10
2022-08-26T09:50:41.005Z,35.23
2022-08-26T09:53:55.999Z,35.53
2022-08-26T09:57:17.950Z,35.59
2022-08-26T10:00:41.819Z,36.08
2022-08-26T10:03:45.613Z,36.21
2022-08-26T10:07:05.118Z,36.53
2022-08-26T10:10:18.590Z,36.97
2022-08-26T10:13:37.601Z,37.42
2022-08-26T10:17:20.382Z,37.66
2022-08-26T10:20:27.393Z,38.09
2022-08-26T10:23:33.101Z,38.37
2022-08-26T10:26:59.079Z,38.84
2022-08-26T10:30:12.502Z,39.05
2022-08-26T10:33:15.502Z,39.42
2022-08-26T10:37:05.130Z,39.84
2022-08-26T10:40:16.026Z,40.13
2022-08-26T10:43:25.649Z,40.13
2022-08-26T10:46:37.040Z,40.95
2022-08-26T10:49:46.048Z,41.35
2022-08-26T10:52:54.913Z,42.03
2022-08-26T10:56:25.119Z,39.93
2022-08-26T10:59:36.814Z,37.72
2022-08-26T11:02:48.260Z,38.01
2022-08-26T11:06:16.217Z,39.38
2022-08-26T11:09:47.508Z,40.60
2022-08-26T11:12:58.819Z,41.41
2022-08-26T11:16:01.419Z,41.90
2022-08-26T11:19:05.048Z,40.30
2022-08-26T11:22:28.082Z,41.16
2022-08-26T11:25:31.084Z,41.11
2022-08-26T11:28:49.734Z,38.36
2022-08-26T11:31:55.708Z,37.49
2022-08-26T11:35:00.435Z,39.04
2022-08-26T11:38:27.117Z,40.67
2022-08-26T11:41:31.365Z,41.55
2022-08-26T11:44:40.073Z,42.45
2022-08-26T11:47:42.927Z,43.15
2022-08-26T11:51:11.234Z,43.64
2022-08-26T11:54:16.119Z,43.09
2022-08-26T11:57:18.441Z,43.49
2022-08-26T12:00:48.744Z,43.53
2022-08-26T12:03:52.378Z,42.51
2022-08-26T12:06:55.774Z,42.30
2022-08-26T12:10:03.502Z,42.79
2022-08-26T12:13:07.258Z,43.43
2022-08-26T12:16:09.702Z,42.33
2022-08-26T12:19:26.288Z,42.30
2022-08-26T12:22:41.968Z,42.01
2022-08-26T12:25:52.075Z,42.12
2022-08-26T12:29:01.510Z,42.08
2022-08-26T12:32:17.805Z,42.90
2022-08-26T12:35:21.260Z,43.76
2022-08-26T12:38:26.918Z,43.84
2022-08-26T12:42:04.346Z,43.52
2022-08-26T12:45:07.643Z,42.96
2022-08-26T12:48:13.617Z,43.15
2022-08-26T12:51:24.456Z,43.70
2022-08-26T12:54:46.925Z,42.17
2022-08-26T12:57:49.320Z,41.32
2022-08-26T13:00:56.142Z,41.76
2022-08-26T13:03:58.556Z,41.43
2022-08-26T13:07:18.658Z,41.82
2022-08-26T13:10:36.197Z,41.45
2022-08-26T13:13:39.085Z,41.19
2022-08-26T13:16:41.693Z,41.43
2022-08-26T13:19:44.106Z,42.07
2022-08-26T13:22:46.509Z,41.72
2022-08-26T13:25:56.228Z,42.30
2022-08-26T13:29:01.731Z,42.41
2022-08-26T13:32:06.571Z,41.77
2022-08-26T13:35:09.012Z,42.20
2022-08-26T13:38:22.383Z,42.83
2022-08-26T13:41:36.712Z,41.89
2022-08-26T13:44:39.141Z,42.36
2022-08-26T13:47:41.412Z,42.37
2022-08-26T13:50:43.700Z,41.75
2022-08-26T13:53:46.256Z,41.72
2022-08-26T13:56:48.548Z,41.85
2022-08-26T13:59:53.920Z,41.34
2022-08-26T14:02:56.213Z,41.25
2022-08-26T14:05:58.495Z,41.43
2022-08-26T14:09:00.837Z,41.59
2022-08-26T14:12:03.370Z,41.34
2022-08-26T14:15:06.841Z,40.47
2022-08-26T14:18:10.952Z,40.23
2022-08-26T14:21:14.493Z,40.15
2022-08-26T14:24:16.759Z,40.07
2022-08-26T14:27:19.017Z,39.51
2022-08-26T14:30:29.196Z,39.11
2022-08-26T14:33:33.948Z,39.29
2022-08-26T14:36:39.650Z,39.85
2022-08-26T14:39:42.001Z,39.95
2022-08-26T14:42:49.677Z,39.70
2022-08-26T14:45:56.137Z,39.42
2022-08-26T14:49:01.734Z,39.66
2022-08-26T14:52:05.013Z,39.61
2022-08-26T14:55:07.681Z,39.21
2022-08-26T14:58:10.261Z,38.93
2022-08-26T15:01:13.082Z,38.50
2022-08-26T15:04:15.497Z,38.23
2022-08-26T15:07:18.201Z,38.01
2022-08-26T15:10:20.709Z,38.17
2022-08-26T15:13:23.748Z,38.04
2022-08-26T15:16:27.555Z,38.09
2022-08-26T15:19:29.956Z,37.95
2022-08-26T15:22:32.246Z,37.53
2022-08-26T15:25:34.656Z,37.57
2022-08-26T15:28:38.432Z,37.53
2022-08-26T15:31:40.905Z,37.07
2022-08-26T15:34:43.280Z,36.97
2022-08-26T15:37:45.634Z,36.59
2022-08-26T15:40:48.026Z,36.39
2022-08-26T15:43:50.615Z,36.31
2022-08-26T15:46:58.485Z,36.01
2022-08-26T15:50:01.226Z,35.85
2022-08-26T15:53:05.208Z,35.64
2022-08-26T15:56:07.479Z,35.34
2022-08-26T15:59:11.357Z,35.31
2022-08-26T16:02:13.738Z,35.10
2022-08-26T16:05:16.443Z,34.83
2022-08-26T16:08:18.994Z,34.69
2022-08-26T16:11:21.384Z,34.51
2022-08-26T16:14:24.183Z,34.59
2022-08-26T16:17:26.439Z,34.41
2022-08-26T16:20:29.795Z,34.22
2022-08-26T16:23:32.045Z,34.08
2022-08-26T16:26:36.765Z,33.87
2022-08-26T16:29:40.904Z,33.64
2022-08-26T16:32:45.524Z,33.61
2022-08-26T16:35:48.060Z,33.46
2022-08-26T16:38:55.203Z,33.22
2022-08-26T16:41:57.628Z,32.83
2022-08-26T16:44:59.971Z,32.86
2022-08-26T16:48:02.429Z,32.65
2022-08-26T16:51:04.686Z,32.38
2022-08-26T16:54:08.069Z,32.21
2022-08-26T16:57:12.194Z,32.21
2022-08-26T17:00:20.685Z,31.88
2022-08-26T17:03:23.020Z,31.81
2022-08-26T17:06:25.316Z,31.45
2022-08-26T17:09:27.669Z,31.13
2022-08-26T17:12:33.830Z,30.94
2022-08-26T17:15:36.132Z,30.81
2022-08-26T17:18:38.773Z,30.28
2022-08-26T17:21:41.244Z,30.12
2022-08-26T17:24:43.577Z,30.02
2022-08-26T17:27:48.849Z,29.69
2022-08-26T17:30:51.177Z,29.39
2022-08-26T17:33:55.459Z,29.31
2022-08-26T17:36:57.788Z,29.08
2022-08-26T17:40:00.205Z,28.88
2022-08-26T17:43:03.031Z,28.91
2022-08-26T17:46:08.064Z,28.60
2022-08-26T17:49:10.388Z,28.36
2022-08-26T17:52:12.659Z,28.24
2022-08-26T17:55:16.887Z,28.12
2022-08-26T17:58:23.247Z,27.85
2022-08-26T18:01:27.772Z,27.68
2022-08-26T18:04:30.256Z,27.42
2022-08-26T18:07:33.520Z,27.45
2022-08-26T18:10:44.745Z,27.38
2022-08-26T18:13:47.766Z,27.17
2022-08-26T18:16:51.085Z,27.08
2022-08-26T18:19:53.628Z,26.84
2022-08-26T18:22:55.901Z,26.86
2022-08-26T18:25:58.172Z,26.56
2022-08-26T18:29:00.835Z,26.32
2022-08-26T18:32:03.452Z,26.01
2022-08-26T18:35:06.095Z,25.74
2022-08-26T18:38:11.091Z,25.66
2022-08-26T18:41:14.455Z,25.54
2022-08-26T18:44:18.667Z,25.51
2022-08-26T18:47:21.053Z,25.31
2022-08-26T18:50:23.648Z,25.19
2022-08-26T18:53:27.488Z,25.13
2022-08-26T18:56:30.101Z,25.06
2022-08-26T18:59:32.731Z,25.05
2022-08-26T19:02:35.081Z,25.18
2022-08-26T19:05:40.217Z,25.18
2022-08-26T19:08:44.769Z,24.96
2022-08-26T19:11:47.241Z,25.05
2022-08-26T19:14:51.993Z,25.02
2022-08-26T19:17:54.279Z,24.96
2022-08-26T19:20:56.915Z,24.98
2022-08-26T19:24:01.734Z,25.02
2022-08-26T19:27:04.506Z,25.00
2022-08-26T19:30:07.585Z,24.93
2022-08-26T19:33:10.473Z,24.82
2022-08-26T19:36:25.424Z,24.62
2022-08-26T19:39:27.799Z,24.65
2022-08-26T19:42:30.097Z,24.54
2022-08-26T19:45:33.024Z,24.47
2022-08-26T19:48:35.317Z,24.49
2022-08-26T19:51:37.736Z,24.41
2022-08-26T19:54:40.563Z,24.34
2022-08-26T19:57:43.683Z,24.17
2022-08-26T20:00:45.992Z,24.14
2022-08-26T20:03:48.342Z,24.01
2022-08-26T20:06:50.778Z,24.01
2022-08-26T20:09:56.093Z,24.01
2022-08-26T20:12:58.520Z,23.92
2022-08-26T20:16:00.819Z,23.80
2022-08-26T20:19:21.895Z,23.87
2022-08-26T20:22:24.760Z,23.96
2022-08-26T20:25:27.084Z,23.92
2022-08-26T20:28:29.677Z,23.79
2022-08-26T20:31:32.095Z,23.56
2022-08-26T20:34:36.155Z,23.36
2022-08-26T20:37:38.596Z,23.49
2022-08-26T20:40:42.209Z,23.57
2022-08-26T20:43:44.887Z,23.43
2022-08-26T20:46:47.382Z,23.45
2022-08-26T20:49:52.383Z,23.41
2022-08-26T20:52:54.935Z,23.49
2022-08-26T20:56:02.434Z,23.38
2022-08-26T20:59:11.600Z,23.43
2022-08-26T21:02:13.899Z,23.52
2022-08-26T21:05:17.234Z,23.43
2022-08-26T21:08:19.603Z,23.41
2022-08-26T21:11:22.367Z,23.45
2022-08-26T21:14:25.972Z,23.28
2022-08-26T21:17:29.282Z,23.30
2022-08-26T21:20:32.702Z,23.08
2022-08-26T21:23:36.233Z,23.08
2022-08-26T21:26:38.701Z,23.19
2022-08-26T21:29:40.961Z,23.11
2022-08-26T21:32:43.292Z,22.79
2022-08-26T21:35:54.965Z,22.57
2022-08-26T21:38:58.876Z,22.71
2022-08-26T21:42:01.148Z,22.81
2022-08-26T21:45:04.539Z,22.43
2022-08-26T21:48:07.799Z,22.30
2022-08-26T21:51:12.502Z,22.33
2022-08-26T21:54:15.897Z,22.21
2022-08-26T21:57:19.036Z,21.93
2022-08-26T22:00:21.439Z,21.79
2022-08-26T22:03:23.733Z,22.06
2022-08-26T22:06:27.713Z,21.52
2022-08-26T22:09:31.675Z,21.05
2022-08-26T22:12:34.023Z,21.04
2022-08-26T22:15:38.577Z,21.35
2022-08-26T22:18:45.654Z,21.01
2022-08-26T22:21:52.972Z,21.27
2022-08-26T22:24:55.252Z,21.45
2022-08-26T22:27:57.540Z,21.41
2022-08-26T22:31:00.517Z,21.48
2022-08-26T22:34:04.191Z,21.52
2022-08-26T22:37:06.516Z,21.61
2022-08-26T22:40:09.749Z,21.54
2022-08-26T22:43:12.931Z,21.55
2022-08-26T22:46:34.865Z,21.58
2022-08-26T22:49:37.248Z,21.55
2022-08-26T22:52:39.540Z,21.55
2022-08-26T22:55:43.407Z,21.63
2022-08-26T22:58:45.778Z,21.54
2022-08-26T23:01:48.112Z,21.51
2022-08-26T23:04:51.215Z,21.46
2022-08-26T23:07:54.038Z,21.49
2022-08-26T23:11:02.998Z,21.44
2022-08-26T23:14:06.488Z,21.41
2022-08-26T23:17:10.770Z,21.37
2022-08-26T23:20:14.789Z,21.34
2022-08-26T23:23:18.131Z,21.12
2022-08-26T23:26:20.419Z,21.10
2022-08-26T23:29:22.685Z,21.14
2022-08-26T23:32:24.953Z,21.25
2022-08-26T23:35:28.731Z,21.07
2022-08-26T23:38:31.346Z,21.24
2022-08-26T23:41:35.712Z,21.28
2022-08-26T23:44:38.823Z,21.23
2022-08-26T23:47:41.443Z,21.24
2022-08-26T23:51:02.133Z,21.24
2022-08-26T23:54:04.500Z,21.18
2022-08-26T23:57:08.846Z,21.24
